Terminal Aerodrome Forecast
Issued by NWS Spokane, WA

Home | Current Version | Previous Version | Text Only | Print | Product List | Glossary On
Versions: 1 2 3 4 5 6 7 8 9 10 11 12 13 14 15 16 17 18 19 20 21 22 23 24 25 26 27 28 29
000
FTUS46 KOTX 191417 AAA
TAFEAT
TAF AMD
KEAT 191417Z 1914/2012 11006KT 5SM BR BKN006 OVC015
     FM191600 00000KT 3SM -SHRA BR BKN008 OVC020
     FM192200 13004KT P6SM SCT008 OVC019
     FM200600 09002KT 4SM BR OVC015=

USA.gov is the U.S. government's official web portal to all federal, state and local government web resources and services.